createdAt,value
2018-10-03T00:09:05.028Z,7.4
2018-10-03T00:19:05.009Z,7.4
2018-10-03T00:29:04.091Z,7.4
2018-10-03T00:39:03.921Z,7.3
2018-10-03T00:49:04.309Z,7.4
2018-10-03T00:59:03.992Z,7.4
2018-10-03T01:09:03.342Z,7.5
2018-10-03T01:19:03.003Z,7.6
2018-10-03T01:29:02.433Z,7.6
2018-10-03T01:39:02.070Z,7.6
2018-10-03T01:49:01.627Z,7.6
2018-10-03T01:59:01.044Z,7.6
2018-10-03T02:09:00.415Z,7.7
2018-10-03T02:18:59.961Z,7.8
2018-10-03T02:28:59.596Z,7.8
2018-10-03T02:38:59.027Z,7.8
2018-10-03T02:48:59.235Z,7.9
2018-10-03T02:58:58.576Z,7.9
2018-10-03T03:08:58.623Z,7.9
2018-10-03T03:18:57.670Z,8
2018-10-03T03:28:57.166Z,8
2018-10-03T03:38:56.589Z,8.1
2018-10-03T03:48:56.027Z,8.1
2018-10-03T03:58:55.739Z,8.1
2018-10-03T04:08:55.522Z,8.1
2018-10-03T04:18:54.603Z,8.1
2018-10-03T04:28:54.490Z,8.1
2018-10-03T04:38:53.907Z,8
2018-10-03T04:48:53.451Z,8
2018-10-03T04:58:52.458Z,7.9
2018-10-03T05:08:52.140Z,7.9
2018-10-03T05:18:51.444Z,7.9
2018-10-03T05:28:50.946Z,8
2018-10-03T05:38:50.237Z,8
2018-10-03T05:48:50.085Z,8.1
2018-10-03T05:58:49.457Z,8.1
2018-10-03T06:08:48.929Z,8.2
2018-10-03T06:18:48.607Z,8.2
2018-10-03T06:28:48.142Z,8.3
2018-10-03T06:38:47.449Z,8.4
2018-10-03T06:48:47.928Z,8.7
2018-10-03T06:58:47.408Z,8.6
2018-10-03T07:49:11.355Z,8.7
2018-10-03T07:59:11.113Z,8.7
2018-10-03T08:09:10.520Z,8.7
2018-10-03T08:19:11.214Z,8.6
2018-10-03T08:29:11.044Z,8.4
2018-10-03T08:39:13.253Z,8.1
2018-10-03T08:49:13.203Z,8.2
2018-10-03T08:59:13.196Z,7.8
2018-10-03T09:09:12.950Z,7.8
2018-10-03T09:19:12.697Z,8.1
2018-10-03T09:29:12.584Z,8.2
2018-10-03T09:39:12.205Z,8.1
2018-10-03T09:49:11.448Z,7.7
2018-10-03T09:59:10.756Z,7.3
2018-10-03T10:19:12.758Z,7.6
2018-10-03T10:29:15.674Z,7.6
2018-10-03T10:39:15.341Z,7.5
2018-10-03T10:49:14.843Z,7.2
2018-10-03T10:59:14.407Z,7.2
2018-10-03T11:09:14.048Z,7.5
2018-10-03T11:19:13.740Z,7.3
2018-10-03T11:39:38.414Z,7.4
2018-10-03T11:49:38.207Z,6.8
2018-10-03T12:09:37.818Z,7.4
2018-10-03T12:19:37.243Z,7.2
2018-10-03T12:29:36.723Z,7.3
2018-10-03T12:39:36.338Z,7.1
2018-10-03T12:49:35.740Z,6.8
2018-10-03T12:59:35.251Z,6.9
2018-10-03T13:09:34.540Z,6.8
2018-10-03T13:19:33.620Z,6.9
2018-10-03T13:29:33.138Z,6.9
2018-10-03T13:39:32.519Z,7.1
2018-10-03T13:49:32.560Z,6.8
2018-10-03T14:09:36.926Z,6.7
2018-10-03T14:19:36.291Z,6.8
2018-10-03T14:29:35.742Z,6.9
2018-10-03T14:39:35.403Z,6.6
2018-10-03T14:49:34.866Z,6.6
2018-10-03T14:59:36.935Z,6.8
2018-10-03T15:09:36.562Z,6.9
2018-10-03T15:19:36.217Z,6.8
2018-10-03T15:49:35.244Z,6.7
2018-10-03T16:09:34.203Z,6.3
2018-10-03T16:19:33.275Z,6.1
2018-10-03T16:29:32.641Z,6.1
2018-10-03T16:39:31.780Z,6
2018-10-03T16:49:30.765Z,5.8
2018-10-03T16:59:30.448Z,5.8
2018-10-03T17:09:29.789Z,5.8
2018-10-03T17:19:29.308Z,5.8
2018-10-03T17:39:30.804Z,5.9
2018-10-03T17:49:30.113Z,5.9
2018-10-03T17:59:29.245Z,5.9
2018-10-03T18:09:28.762Z,5.9
2018-10-03T18:19:28.117Z,6
2018-10-03T18:39:27.694Z,6
2018-10-03T18:49:26.765Z,6.1
2018-10-03T19:09:31.387Z,6.2
2018-10-03T19:19:31.540Z,6.2
2018-10-03T19:29:31.013Z,6.2
2018-10-03T19:39:30.333Z,6.2
2018-10-03T19:49:29.458Z,6.2
2018-10-03T19:59:28.932Z,6.1
2018-10-03T20:09:28.559Z,6.1
2018-10-03T20:19:28.274Z,6.2
2018-10-03T20:29:27.981Z,6.3
2018-10-03T20:49:27.458Z,6.4
2018-10-03T21:09:26.517Z,6.3
2018-10-03T21:19:25.614Z,6.3
2018-10-03T21:29:25.394Z,6.4
2018-10-03T21:39:25.077Z,6.4
2018-10-03T21:49:24.448Z,6.5
2018-10-03T21:59:24.291Z,6.4
2018-10-03T22:19:22.773Z,6.3
2018-10-03T22:29:22.647Z,6.3
2018-10-03T22:39:22.052Z,6.2
2018-10-03T22:49:21.172Z,6.2
2018-10-03T22:59:20.547Z,6.2
2018-10-03T23:09:19.759Z,6.2
2018-10-03T23:19:19.180Z,6.3
2018-10-03T23:29:18.636Z,6.4
2018-10-03T23:39:18.259Z,6.5
2018-10-03T23:49:17.373Z,6.7
2018-10-03T23:59:17.283Z,6.8
